sensor_id;sensor_type;location;lat;lon;timestamp;pressure;altitude;pressure_sealevel;temperature;humidity
48926;BME280;39838;59.938;30.642;2023-01-31T00:01:06;97030.81;;;1.16;86.98
48926;BME280;39838;59.938;30.642;2023-01-31T00:03:34;97035.03;;;1.17;87.00
48926;BME280;39838;59.938;30.642;2023-01-31T00:06:13;97036.75;;;1.17;87.12
48926;BME280;39838;59.938;30.642;2023-01-31T00:08:40;97030.06;;;1.09;86.95
48926;BME280;39838;59.938;30.642;2023-01-31T00:11:09;97034.19;;;1.17;87.42
48926;BME280;39838;59.938;30.642;2023-01-31T00:13:37;97039.31;;;1.15;87.19
48926;BME280;39838;59.938;30.642;2023-01-31T00:16:05;97037.59;;;1.17;87.24
48926;BME280;39838;59.938;30.642;2023-01-31T00:18:33;97042.72;;;1.17;87.26
48926;BME280;39838;59.938;30.642;2023-01-31T00:21:07;97036.75;;;1.17;87.19
48926;BME280;39838;59.938;30.642;2023-01-31T00:23:34;97021.63;;;1.04;86.92
48926;BME280;39838;59.938;30.642;2023-01-31T00:26:14;97037.59;;;1.17;86.97
48926;BME280;39838;59.938;30.642;2023-01-31T00:28:43;97016.47;;;1.06;87.03
48926;BME280;39838;59.938;30.642;2023-01-31T00:31:11;97041.00;;;1.18;87.10
48926;BME280;39838;59.938;30.642;2023-01-31T00:33:40;97037.66;;;1.13;87.19
48926;BME280;39838;59.938;30.642;2023-01-31T00:36:09;97036.06;;;1.08;87.04
48926;BME280;39838;59.938;30.642;2023-01-31T00:38:37;97038.63;;;1.08;87.71
48926;BME280;39838;59.938;30.642;2023-01-31T00:41:05;97048.78;;;1.12;87.52
48926;BME280;39838;59.938;30.642;2023-01-31T00:43:34;97045.41;;;1.09;87.37
48926;BME280;39838;59.938;30.642;2023-01-31T00:46:01;97059.06;;;1.08;86.97
48926;BME280;39838;59.938;30.642;2023-01-31T00:48:29;97054.84;;;1.06;87.48
48926;BME280;39838;59.938;30.642;2023-01-31T00:50:57;97055.66;;;1.06;87.38
48926;BME280;39838;59.938;30.642;2023-01-31T00:53:24;97044.63;;;1.04;87.61
48926;BME280;39838;59.938;30.642;2023-01-31T00:55:52;97047.25;;;1.00;87.80
48926;BME280;39838;59.938;30.642;2023-01-31T00:58:20;97048.09;;;1.02;87.88
48926;BME280;39838;59.938;30.642;2023-01-31T01:00:48;97048.09;;;1.02;87.90
48926;BME280;39838;59.938;30.642;2023-01-31T01:03:16;97053.16;;;1.05;87.95
48926;BME280;39838;59.938;30.642;2023-01-31T01:05:43;97056.50;;;1.08;87.93
48926;BME280;39838;59.938;30.642;2023-01-31T01:08:10;97059.06;;;1.08;87.99
48926;BME280;39838;59.938;30.642;2023-01-31T01:10:37;97057.31;;;1.11;87.98
48926;BME280;39838;59.938;30.642;2023-01-31T01:13:05;97047.06;;;1.12;87.95
48926;BME280;39838;59.938;30.642;2023-01-31T01:15:32;97048.69;;;1.15;87.58
48926;BME280;39838;59.938;30.642;2023-01-31T01:18:04;97057.22;;;1.17;87.77
48926;BME280;39838;59.938;30.642;2023-01-31T01:20:32;97049.53;;;1.15;87.71
48926;BME280;39838;59.938;30.642;2023-01-31T01:23:00;97046.97;;;1.17;87.92
48926;BME280;39838;59.938;30.642;2023-01-31T01:25:27;97046.94;;;1.18;87.82
48926;BME280;39838;59.938;30.642;2023-01-31T01:27:54;97052.88;;;1.20;87.74
48926;BME280;39838;59.938;30.642;2023-01-31T01:30:21;97053.75;;;1.19;87.52
48926;BME280;39838;59.938;30.642;2023-01-31T01:32:49;97049.47;;;1.20;87.97
48926;BME280;39838;59.938;30.642;2023-01-31T01:35:18;97062.25;;;1.20;88.00
48926;BME280;39838;59.938;30.642;2023-01-31T01:37:45;97072.50;;;1.20;87.89
48926;BME280;39838;59.938;30.642;2023-01-31T01:40:12;97056.31;;;1.19;87.72
48926;BME280;39838;59.938;30.642;2023-01-31T01:42:39;97063.16;;;1.17;87.97
48926;BME280;39838;59.938;30.642;2023-01-31T01:45:11;97074.31;;;1.13;87.95
48926;BME280;39838;59.938;30.642;2023-01-31T01:47:45;97077.78;;;1.11;88.06
48926;BME280;39838;59.938;30.642;2023-01-31T01:50:21;97093.16;;;1.07;88.20
48926;BME280;39838;59.938;30.642;2023-01-31T01:52:51;97089.84;;;1.02;88.00
48926;BME280;39838;59.938;30.642;2023-01-31T01:55:23;97105.28;;;0.96;88.17
48926;BME280;39838;59.938;30.642;2023-01-31T01:57:55;97102.84;;;0.89;88.30
48926;BME280;39838;59.938;30.642;2023-01-31T02:00:26;97117.44;;;0.82;88.32
48926;BME280;39838;59.938;30.642;2023-01-31T02:02:56;97089.53;;;0.67;88.50
48926;BME280;39838;59.938;30.642;2023-01-31T02:05:29;97097.28;;;0.61;88.76
48926;BME280;39838;59.938;30.642;2023-01-31T02:07:58;97118.59;;;0.60;89.21
48926;BME280;39838;59.938;30.642;2023-01-31T02:10:30;97099.09;;;0.54;89.93
48926;BME280;39838;59.938;30.642;2023-01-31T02:12:59;97119.44;;;0.62;89.86
48926;BME280;39838;59.938;30.642;2023-01-31T02:15:27;97111.78;;;0.62;90.08
48926;BME280;39838;59.938;30.642;2023-01-31T02:17:55;97112.59;;;0.64;90.09
48926;BME280;39838;59.938;30.642;2023-01-31T02:23:52;97126.25;;;0.61;89.72
48926;BME280;39838;59.938;30.642;2023-01-31T02:26:47;97118.59;;;0.61;89.35
48926;BME280;39838;59.938;30.642;2023-01-31T02:29:44;97118.53;;;0.64;89.29
48926;BME280;39838;59.938;30.642;2023-01-31T02:32:54;97128.75;;;0.64;88.86
48926;BME280;39838;59.938;30.642;2023-01-31T02:35:37;97122.00;;;0.62;88.27
48926;BME280;39838;59.938;30.642;2023-01-31T02:38:18;97132.22;;;0.62;88.49
48926;BME280;39838;59.938;30.642;2023-01-31T02:40:55;97131.34;;;0.63;88.46
48926;BME280;39838;59.938;30.642;2023-01-31T02:43:34;97127.09;;;0.62;88.35
48926;BME280;39838;59.938;30.642;2023-01-31T02:46:35;97135.59;;;0.62;88.14
48926;BME280;39838;59.938;30.642;2023-01-31T02:49:13;97124.59;;;0.57;88.37
48926;BME280;39838;59.938;30.642;2023-01-31T02:52:05;97117.06;;;0.46;88.52
48926;BME280;39838;59.938;30.642;2023-01-31T02:54:45;97128.81;;;0.60;88.60
48926;BME280;39838;59.938;30.642;2023-01-31T02:57:34;97135.66;;;0.58;88.01
48926;BME280;39838;59.938;30.642;2023-01-31T03:00:04;97133.19;;;0.51;87.98
48926;BME280;39838;59.938;30.642;2023-01-31T03:02:32;97147.59;;;0.57;88.42
48926;BME280;39838;59.938;30.642;2023-01-31T03:05:13;97162.97;;;0.52;88.01
48926;BME280;39838;59.938;30.642;2023-01-31T03:07:43;97159.63;;;0.47;88.49
48926;BME280;39838;59.938;30.642;2023-01-31T03:10:20;97160.56;;;0.43;88.32
48926;BME280;39838;59.938;30.642;2023-01-31T03:13:01;97158.13;;;0.34;88.51
48926;BME280;39838;59.938;30.642;2023-01-31T03:15:41;97172.56;;;0.35;88.70
48926;BME280;39838;59.938;30.642;2023-01-31T03:18:35;97170.03;;;0.35;89.26
48926;BME280;39838;59.938;30.642;2023-01-31T03:21:08;97174.34;;;0.27;89.23
48926;BME280;39838;59.938;30.642;2023-01-31T03:23:38;97185.50;;;0.21;89.32
48926;BME280;39838;59.938;30.642;2023-01-31T03:26:07;97190.63;;;0.18;89.07
48926;BME280;39838;59.938;30.642;2023-01-31T03:28:37;97182.16;;;0.16;89.67
48926;BME280;39838;59.938;30.642;2023-01-31T03:31:11;97194.25;;;0.02;90.08
48926;BME280;39838;59.938;30.642;2023-01-31T03:33:44;97194.25;;;0.01;90.04
48926;BME280;39838;59.938;30.642;2023-01-31T03:36:22;97204.44;;;0.02;90.27
48926;BME280;39838;59.938;30.642;2023-01-31T03:38:58;97185.75;;;0.00;89.44
48926;BME280;39838;59.938;30.642;2023-01-31T03:41:33;97201.13;;;-0.05;89.63
48926;BME280;39838;59.938;30.642;2023-01-31T03:44:07;97218.97;;;-0.05;89.36
48926;BME280;39838;59.938;30.642;2023-01-31T03:46:38;97216.50;;;-0.12;89.49
48926;BME280;39838;59.938;30.642;2023-01-31T03:49:11;97221.63;;;-0.15;90.00
48926;BME280;39838;59.938;30.642;2023-01-31T03:51:43;97215.66;;;-0.14;89.95
48926;BME280;39838;59.938;30.642;2023-01-31T03:54:15;97200.47;;;-0.25;89.70
48926;BME280;39838;59.938;30.642;2023-01-31T03:56:47;97226.69;;;-0.11;89.44
48926;BME280;39838;59.938;30.642;2023-01-31T03:59:22;97243.66;;;-0.08;89.68
48926;BME280;39838;59.938;30.642;2023-01-31T04:01:55;97224.13;;;-0.11;89.36
48926;BME280;39838;59.938;30.642;2023-01-31T04:04:27;97231.03;;;-0.22;89.76
48926;BME280;39838;59.938;30.642;2023-01-31T04:07:00;97237.72;;;-0.09;89.33
48926;BME280;39838;59.938;30.642;2023-01-31T04:09:28;97253.06;;;-0.10;89.20
48926;BME280;39838;59.938;30.642;2023-01-31T04:11:58;97233.66;;;-0.26;89.22
48926;BME280;39838;59.938;30.642;2023-01-31T04:14:26;97254.75;;;-0.11;88.97
48926;BME280;39838;59.938;30.642;2023-01-31T04:16:53;97264.97;;;-0.11;88.81
48926;BME280;39838;59.938;30.642;2023-01-31T04:19:20;97265.84;;;-0.15;88.75
48926;BME280;39838;59.938;30.642;2023-01-31T04:21:47;97270.09;;;-0.12;89.08
48926;BME280;39838;59.938;30.642;2023-01-31T04:24:16;97279.41;;;-0.10;89.06
48926;BME280;39838;59.938;30.642;2023-01-31T04:26:43;97284.50;;;-0.08;88.46
48926;BME280;39838;59.938;30.642;2023-01-31T04:29:10;97280.25;;;-0.09;88.57
48926;BME280;39838;59.938;30.642;2023-01-31T04:31:38;97277.75;;;-0.15;88.16
48926;BME280;39838;59.938;30.642;2023-01-31T04:34:05;97288.81;;;-0.15;88.40
48926;BME280;39838;59.938;30.642;2023-01-31T04:36:33;97286.31;;;-0.18;88.41
48926;BME280;39838;59.938;30.642;2023-01-31T04:39:00;97287.16;;;-0.19;88.61
48926;BME280;39838;59.938;30.642;2023-01-31T04:41:29;97285.47;;;-0.20;88.36
48926;BME280;39838;59.938;30.642;2023-01-31T04:43:56;97290.56;;;-0.18;88.36
48926;BME280;39838;59.938;30.642;2023-01-31T04:46:23;97292.25;;;-0.20;87.96
48926;BME280;39838;59.938;30.642;2023-01-31T04:48:51;97296.53;;;-0.19;87.73
48926;BME280;39838;59.938;30.642;2023-01-31T04:51:18;97295.69;;;-0.20;87.93
48926;BME280;39838;59.938;30.642;2023-01-31T04:53:45;97309.25;;;-0.18;87.75
48926;BME280;39838;59.938;30.642;2023-01-31T04:56:12;97306.72;;;-0.19;87.52
48926;BME280;39838;59.938;30.642;2023-01-31T04:58:41;97309.25;;;-0.18;88.23
48926;BME280;39838;59.938;30.642;2023-01-31T05:01:08;97304.13;;;-0.15;87.35
48926;BME280;39838;59.938;30.642;2023-01-31T05:03:36;97307.53;;;-0.16;87.07
48926;BME280;39838;59.938;30.642;2023-01-31T05:06:03;97305.91;;;-0.23;87.30
48926;BME280;39838;59.938;30.642;2023-01-31T05:08:30;97309.34;;;-0.27;87.53
48926;BME280;39838;59.938;30.642;2023-01-31T05:10:58;97309.34;;;-0.30;87.42
48926;BME280;39838;59.938;30.642;2023-01-31T05:13:26;97318.69;;;-0.26;87.81
48926;BME280;39838;59.938;30.642;2023-01-31T05:15:56;97315.28;;;-0.25;87.64
48926;BME280;39838;59.938;30.642;2023-01-31T05:18:23;97327.19;;;-0.25;88.00
48926;BME280;39838;59.938;30.642;2023-01-31T05:20:51;97326.34;;;-0.28;87.63
48926;BME280;39838;59.938;30.642;2023-01-31T05:23:18;97328.06;;;-0.31;87.26
48926;BME280;39838;59.938;30.642;2023-01-31T05:25:48;97345.13;;;-0.38;87.10
48926;BME280;39838;59.938;30.642;2023-01-31T05:28:15;97339.16;;;-0.37;87.33
48926;BME280;39838;59.938;30.642;2023-01-31T05:30:46;97349.34;;;-0.35;87.71
48926;BME280;39838;59.938;30.642;2023-01-31T05:33:15;97341.72;;;-0.38;87.38
48926;BME280;39838;59.938;30.642;2023-01-31T05:35:44;97347.66;;;-0.35;87.56
48926;BME280;39838;59.938;30.642;2023-01-31T05:38:11;97362.97;;;-0.33;87.57
48926;BME280;39838;59.938;30.642;2023-01-31T05:40:38;97361.25;;;-0.31;87.13
48926;BME280;39838;59.938;30.642;2023-01-31T05:43:06;97360.44;;;-0.41;86.80
48926;BME280;39838;59.938;30.642;2023-01-31T05:45:33;97374.06;;;-0.39;87.24
48926;BME280;39838;59.938;30.642;2023-01-31T05:48:00;97376.59;;;-0.39;87.27
48926;BME280;39838;59.938;30.642;2023-01-31T05:50:29;97380.00;;;-0.40;87.42
48926;BME280;39838;59.938;30.642;2023-01-31T05:52:57;97385.94;;;-0.41;87.52
48926;BME280;39838;59.938;30.642;2023-01-31T05:55:25;97392.75;;;-0.41;88.03
48926;BME280;39838;59.938;30.642;2023-01-31T05:57:52;97411.47;;;-0.42;87.99
48926;BME280;39838;59.938;30.642;2023-01-31T06:00:21;97400.44;;;-0.44;87.89
48926;BME280;39838;59.938;30.642;2023-01-31T06:02:49;97403.00;;;-0.46;88.22
48926;BME280;39838;59.938;30.642;2023-01-31T06:05:16;97391.94;;;-0.48;87.73
48926;BME280;39838;59.938;30.642;2023-01-31T06:07:45;97401.34;;;-0.51;87.52
48926;BME280;39838;59.938;30.642;2023-01-31T06:10:12;97418.34;;;-0.53;87.13
48926;BME280;39838;59.938;30.642;2023-01-31T06:12:40;97426.00;;;-0.61;86.98
48926;BME280;39838;59.938;30.642;2023-01-31T06:15:08;97410.72;;;-0.63;86.93
48926;BME280;39838;59.938;30.642;2023-01-31T06:17:35;97421.81;;;-0.67;86.83
48926;BME280;39838;59.938;30.642;2023-01-31T06:20:03;97430.28;;;-0.62;86.70
48926;BME280;39838;59.938;30.642;2023-01-31T06:22:30;97398.03;;;-0.75;87.10
48926;BME280;39838;59.938;30.642;2023-01-31T06:24:59;97432.84;;;-0.65;86.77
48926;BME280;39838;59.938;30.642;2023-01-31T06:27:26;97448.13;;;-0.62;86.71
48926;BME280;39838;59.938;30.642;2023-01-31T06:29:54;97436.25;;;-0.64;86.97
48926;BME280;39838;59.938;30.642;2023-01-31T06:32:21;97454.09;;;-0.69;87.09
48926;BME280;39838;59.938;30.642;2023-01-31T06:34:48;97453.25;;;-0.71;86.59
48926;BME280;39838;59.938;30.642;2023-01-31T06:37:15;97462.63;;;-0.76;86.82
48926;BME280;39838;59.938;30.642;2023-01-31T06:39:42;97448.19;;;-0.77;86.94
48926;BME280;39838;59.938;30.642;2023-01-31T06:42:11;97457.56;;;-0.79;86.38
48926;BME280;39838;59.938;30.642;2023-01-31T06:44:39;97449.88;;;-0.76;86.65
48926;BME280;39838;59.938;30.642;2023-01-31T06:47:06;97463.47;;;-0.77;86.71
48926;BME280;39838;59.938;30.642;2023-01-31T06:49:33;97464.34;;;-0.79;86.47
48926;BME280;39838;59.938;30.642;2023-01-31T06:52:00;97461.78;;;-0.78;86.83
48926;BME280;39838;59.938;30.642;2023-01-31T06:54:27;97458.41;;;-0.78;86.60
48926;BME280;39838;59.938;30.642;2023-01-31T06:56:54;97475.38;;;-0.77;86.89
48926;BME280;39838;59.938;30.642;2023-01-31T06:59:23;97477.94;;;-0.74;87.05
48926;BME280;39838;59.938;30.642;2023-01-31T07:01:51;97488.97;;;-0.72;87.00
48926;BME280;39838;59.938;30.642;2023-01-31T07:04:18;97496.63;;;-0.72;87.21
48926;BME280;39838;59.938;30.642;2023-01-31T07:06:45;97485.56;;;-0.70;86.83
48926;BME280;39838;59.938;30.642;2023-01-31T07:09:12;97483.88;;;-0.74;86.95
48926;BME280;39838;59.938;30.642;2023-01-31T07:11:40;97495.78;;;-0.79;86.63
48926;BME280;39838;59.938;30.642;2023-01-31T07:14:07;97500.88;;;-0.79;86.97
48926;BME280;39838;59.938;30.642;2023-01-31T07:16:36;97499.19;;;-0.77;86.77
48926;BME280;39838;59.938;30.642;2023-01-31T07:19:03;97474.53;;;-0.76;86.69
48926;BME280;39838;59.938;30.642;2023-01-31T07:21:31;97505.16;;;-0.81;87.07
48926;BME280;39838;59.938;30.642;2023-01-31T07:24:00;97510.25;;;-0.81;87.22
48926;BME280;39838;59.938;30.642;2023-01-31T07:26:28;97523.00;;;-0.81;87.30
48926;BME280;39838;59.938;30.642;2023-01-31T07:28:55;97525.53;;;-0.79;87.68
48926;BME280;39838;59.938;30.642;2023-01-31T07:31:22;97531.47;;;-0.82;87.69
48926;BME280;39838;59.938;30.642;2023-01-31T07:33:51;97522.13;;;-0.78;87.41
48926;BME280;39838;59.938;30.642;2023-01-31T07:36:18;97528.91;;;-0.77;87.24
48926;BME280;39838;59.938;30.642;2023-01-31T07:38:52;97534.00;;;-0.70;87.46
48926;BME280;39838;59.938;30.642;2023-01-31T07:41:20;97518.69;;;-0.70;86.92
48926;BME280;39838;59.938;30.642;2023-01-31T07:43:47;97532.25;;;-0.62;86.97
48926;BME280;39838;59.938;30.642;2023-01-31T07:46:14;97535.66;;;-0.58;86.77
48926;BME280;39838;59.938;30.642;2023-01-31T07:48:42;97534.00;;;-0.61;86.52
48926;BME280;39838;59.938;30.642;2023-01-31T07:51:10;97568.00;;;-0.65;86.68
48926;BME280;39838;59.938;30.642;2023-01-31T07:53:38;97539.09;;;-0.70;86.61
48926;BME280;39838;59.938;30.642;2023-01-31T07:56:11;97557.78;;;-0.65;86.92
48926;BME280;39838;59.938;30.642;2023-01-31T07:58:40;97559.47;;;-0.62;86.93
48926;BME280;39838;59.938;30.642;2023-01-31T08:01:10;97566.25;;;-0.57;86.94
48926;BME280;39838;59.938;30.642;2023-01-31T08:03:56;97571.38;;;-0.53;86.52
48926;BME280;39838;59.938;30.642;2023-01-31T08:06:31;97583.25;;;-0.56;86.73
48926;BME280;39838;59.938;30.642;2023-01-31T08:09:00;97607.91;;;-0.58;86.82
48926;BME280;39838;59.938;30.642;2023-01-31T08:11:27;97578.16;;;-0.52;87.03
48926;BME280;39838;59.938;30.642;2023-01-31T08:13:54;97616.41;;;-0.51;86.74
48926;BME280;39838;59.938;30.642;2023-01-31T08:16:22;97602.81;;;-0.55;86.38
48926;BME280;39838;59.938;30.642;2023-01-31T08:18:50;97607.06;;;-0.57;86.63
48926;BME280;39838;59.938;30.642;2023-01-31T08:21:18;97616.41;;;-0.52;86.70
48926;BME280;39838;59.938;30.642;2023-01-31T08:23:48;97597.75;;;-0.61;86.75
48926;BME280;39838;59.938;30.642;2023-01-31T08:26:17;97613.00;;;-0.45;86.30
48926;BME280;39838;59.938;30.642;2023-01-31T08:28:45;97641.06;;;-0.45;86.26
48926;BME280;39838;59.938;30.642;2023-01-31T08:31:14;97633.41;;;-0.47;86.66
48926;BME280;39838;59.938;30.642;2023-01-31T08:33:42;97634.25;;;-0.56;86.34
48926;BME280;39838;59.938;30.642;2023-01-31T08:36:11;97636.81;;;-0.57;86.51
48926;BME280;39838;59.938;30.642;2023-01-31T08:38:38;97644.47;;;-0.56;86.46
48926;BME280;39838;59.938;30.642;2023-01-31T08:41:11;97647.88;;;-0.63;86.07
48926;BME280;39838;59.938;30.642;2023-01-31T08:43:38;97666.59;;;-0.59;85.56
48926;BME280;39838;59.938;30.642;2023-01-31T08:46:08;97677.63;;;-0.56;85.60
48926;BME280;39838;59.938;30.642;2023-01-31T08:48:36;97671.66;;;-0.55;85.41
48926;BME280;39838;59.938;30.642;2023-01-31T08:51:11;97653.81;;;-0.56;85.02
48926;BME280;39838;59.938;30.642;2023-01-31T08:53:42;97681.88;;;-0.51;85.14
48926;BME280;39838;59.938;30.642;2023-01-31T08:56:12;97688.69;;;-0.46;85.14
48926;BME280;39838;59.938;30.642;2023-01-31T08:58:41;97688.66;;;-0.50;84.58
48926;BME280;39838;59.938;30.642;2023-01-31T09:01:12;97630.91;;;-0.85;84.39
48926;BME280;39838;59.938;30.642;2023-01-31T09:03:40;97682.72;;;-0.51;84.13
48926;BME280;39838;59.938;30.642;2023-01-31T09:06:11;97699.72;;;-0.51;83.73
48926;BME280;39838;59.938;30.642;2023-01-31T09:08:39;97694.63;;;-0.50;83.24
48926;BME280;39838;59.938;30.642;2023-01-31T09:11:07;97695.47;;;-0.59;82.93
48926;BME280;39838;59.938;30.642;2023-01-31T09:13:43;97692.94;;;-0.54;83.04
48926;BME280;39838;59.938;30.642;2023-01-31T09:16:12;97690.38;;;-0.57;83.44
48926;BME280;39838;59.938;30.642;2023-01-31T09:18:40;97704.84;;;-0.47;84.01
48926;BME280;39838;59.938;30.642;2023-01-31T09:21:12;97703.97;;;-0.46;83.33
48926;BME280;39838;59.938;30.642;2023-01-31T09:23:40;97716.72;;;-0.43;83.17
48926;BME280;39838;59.938;30.642;2023-01-31T09:26:11;97724.38;;;-0.44;82.57
48926;BME280;39838;59.938;30.642;2023-01-31T09:28:38;97712.47;;;-0.42;82.72
48926;BME280;39838;59.938;30.642;2023-01-31T09:31:13;97719.28;;;-0.44;82.37
48926;BME280;39838;59.938;30.642;2023-01-31T09:33:40;97737.16;;;-0.46;82.28
48926;BME280;39838;59.938;30.642;2023-01-31T09:36:12;97711.63;;;-0.57;82.00
48926;BME280;39838;59.938;30.642;2023-01-31T09:38:40;97726.91;;;-0.41;81.62
48926;BME280;39838;59.938;30.642;2023-01-31T09:41:15;97733.75;;;-0.59;81.58
48926;BME280;39838;59.938;30.642;2023-01-31T09:43:51;97703.97;;;-0.41;81.39
48926;BME280;39838;59.938;30.642;2023-01-31T09:46:25;97718.44;;;-0.49;81.35
48926;BME280;39838;59.938;30.642;2023-01-31T09:48:58;97745.66;;;-0.39;80.61
48926;BME280;39838;59.938;30.642;2023-01-31T09:51:31;97741.41;;;-0.40;80.48
48926;BME280;39838;59.938;30.642;2023-01-31T09:54:08;97710.75;;;-0.68;80.43
48926;BME280;39838;59.938;30.642;2023-01-31T09:56:44;97750.72;;;-0.56;80.77
48926;BME280;39838;59.938;30.642;2023-01-31T09:59:20;97766.91;;;-0.45;80.49
48926;BME280;39838;59.938;30.642;2023-01-31T10:01:54;97742.25;;;-0.46;80.21
48926;BME280;39838;59.938;30.642;2023-01-31T10:04:39;97760.97;;;-0.47;80.09
48926;BME280;39838;59.938;30.642;2023-01-31T10:07:13;97769.44;;;-0.39;80.57
48926;BME280;39838;59.938;30.642;2023-01-31T10:09:45;97769.44;;;-0.39;80.33
48926;BME280;39838;59.938;30.642;2023-01-31T10:12:17;97769.44;;;-0.37;80.37
48926;BME280;39838;59.938;30.642;2023-01-31T10:14:48;97768.59;;;-0.38;80.03
48926;BME280;39838;59.938;30.642;2023-01-31T10:17:21;97759.22;;;-0.48;79.75
48926;BME280;39838;59.938;30.642;2023-01-31T10:19:57;97799.22;;;-0.33;79.85
48926;BME280;39838;59.938;30.642;2023-01-31T10:22:34;97783.91;;;-0.33;79.71
48926;BME280;39838;59.938;30.642;2023-01-31T10:25:15;97772.81;;;-0.55;80.17
48926;BME280;39838;59.938;30.642;2023-01-31T10:27:47;97803.47;;;-0.38;79.98
48926;BME280;39838;59.938;30.642;2023-01-31T10:30:17;97798.38;;;-0.34;80.23
48926;BME280;39838;59.938;30.642;2023-01-31T10:32:50;97819.63;;;-0.32;79.73
48926;BME280;39838;59.938;30.642;2023-01-31T10:35:26;97800.06;;;-0.31;80.87
48926;BME280;39838;59.938;30.642;2023-01-31T10:37:59;97812.81;;;-0.33;81.26
48926;BME280;39838;59.938;30.642;2023-01-31T10:40:34;97823.88;;;-0.34;81.02
48926;BME280;39838;59.938;30.642;2023-01-31T10:43:10;97820.47;;;-0.45;81.19
48926;BME280;39838;59.938;30.642;2023-01-31T10:45:40;97834.91;;;-0.58;81.75
48926;BME280;39838;59.938;30.642;2023-01-31T10:48:14;97826.38;;;-0.64;81.71
48926;BME280;39838;59.938;30.642;2023-01-31T10:50:51;97817.03;;;-0.67;81.92
48926;BME280;39838;59.938;30.642;2023-01-31T10:53:37;97836.59;;;-0.66;81.74
48926;BME280;39838;59.938;30.642;2023-01-31T10:56:11;97819.59;;;-0.64;81.80
48926;BME280;39838;59.938;30.642;2023-01-31T10:58:44;97838.28;;;-0.56;81.86
48926;BME280;39838;59.938;30.642;2023-01-31T11:01:12;97851.91;;;-0.52;81.63
48926;BME280;39838;59.938;30.642;2023-01-31T11:03:46;97834.91;;;-0.51;81.50
48926;BME280;39838;59.938;30.642;2023-01-31T11:06:14;97845.13;;;-0.45;81.31
48926;BME280;39838;59.938;30.642;2023-01-31T11:08:45;97844.28;;;-0.47;80.77
48926;BME280;39838;59.938;30.642;2023-01-31T11:11:14;97846.81;;;-0.37;80.90
48926;BME280;39838;59.938;30.642;2023-01-31T11:13:55;97866.41;;;-0.25;80.56
48926;BME280;39838;59.938;30.642;2023-01-31T11:16:23;97861.31;;;-0.19;80.28
48926;BME280;39838;59.938;30.642;2023-01-31T11:18:53;97860.47;;;-0.18;80.38
48926;BME280;39838;59.938;30.642;2023-01-31T11:21:23;97858.75;;;-0.30;80.26
48926;BME280;39838;59.938;30.642;2023-01-31T11:23:51;97896.16;;;-0.22;79.89
48926;BME280;39838;59.938;30.642;2023-01-31T11:26:26;97862.16;;;-0.34;79.21
48926;BME280;39838;59.938;30.642;2023-01-31T11:28:54;97875.75;;;-0.29;79.91
48926;BME280;39838;59.938;30.642;2023-01-31T11:31:28;97914.03;;;-0.32;79.76
48926;BME280;39838;59.938;30.642;2023-01-31T11:34:02;97880.84;;;-0.36;79.96
48926;BME280;39838;59.938;30.642;2023-01-31T11:36:32;97891.06;;;-0.32;79.78
48926;BME280;39838;59.938;30.642;2023-01-31T11:39:21;97902.09;;;-0.42;79.56
48926;BME280;39838;59.938;30.642;2023-01-31T11:41:51;97904.66;;;-0.39;79.58
48926;BME280;39838;59.938;30.642;2023-01-31T11:44:22;97909.78;;;-0.33;79.30
48926;BME280;39838;59.938;30.642;2023-01-31T11:46:51;97900.41;;;-0.37;78.59
48926;BME280;39838;59.938;30.642;2023-01-31T11:49:26;97919.13;;;-0.38;78.81
48926;BME280;39838;59.938;30.642;2023-01-31T11:51:55;97915.75;;;-0.34;78.11
48926;BME280;39838;59.938;30.642;2023-01-31T11:54:25;97909.78;;;-0.40;78.30
48926;BME280;39838;59.938;30.642;2023-01-31T11:56:53;97925.94;;;-0.34;77.88
48926;BME280;39838;59.938;30.642;2023-01-31T11:59:23;97917.41;;;-0.34;77.43
48926;BME280;39838;59.938;30.642;2023-01-31T12:01:52;97917.41;;;-0.36;76.76
48926;BME280;39838;59.938;30.642;2023-01-31T12:04:24;97914.88;;;-0.31;76.93
48926;BME280;39838;59.938;30.642;2023-01-31T12:06:59;97933.59;;;-0.28;76.63
48926;BME280;39838;59.938;30.642;2023-01-31T12:09:29;97896.13;;;-0.51;75.97
48926;BME280;39838;59.938;30.642;2023-01-31T12:11:59;97936.97;;;-0.38;75.83
48926;BME280;39838;59.938;30.642;2023-01-31T12:14:40;97929.28;;;-0.50;75.92
48926;BME280;39838;59.938;30.642;2023-01-31T12:17:11;97950.53;;;-0.49;76.73
48926;BME280;39838;59.938;30.642;2023-01-31T12:19:51;97936.94;;;-0.51;76.53
48926;BME280;39838;59.938;30.642;2023-01-31T12:22:28;97952.28;;;-0.47;76.90
48926;BME280;39838;59.938;30.642;2023-01-31T12:25:03;97949.66;;;-0.55;76.30
48926;BME280;39838;59.938;30.642;2023-01-31T12:27:44;97962.41;;;-0.61;76.35
48926;BME280;39838;59.938;30.642;2023-01-31T12:33:15;97967.47;;;-0.68;75.72
48926;BME280;39838;59.938;30.642;2023-01-31T12:35:56;97958.09;;;-0.68;75.61
48926;BME280;39838;59.938;30.642;2023-01-31T12:38:44;97975.16;;;-0.65;75.42
48926;BME280;39838;59.938;30.642;2023-01-31T12:41:23;97973.44;;;-0.63;75.62
48926;BME280;39838;59.938;30.642;2023-01-31T12:44:14;97984.50;;;-0.66;75.62
48926;BME280;39838;59.938;30.642;2023-01-31T12:46:55;97978.50;;;-0.71;75.60
48926;BME280;39838;59.938;30.642;2023-01-31T12:49:52;97986.13;;;-0.75;75.76
48926;BME280;39838;59.938;30.642;2023-01-31T12:52:30;97993.81;;;-0.69;75.59
48926;BME280;39838;59.938;30.642;2023-01-31T12:55:19;97946.94;;;-0.97;74.93
48926;BME280;39838;59.938;30.642;2023-01-31T12:57:52;97967.28;;;-1.03;74.46
48926;BME280;39838;59.938;30.642;2023-01-31T13:00:27;97998.00;;;-0.82;74.80
48926;BME280;39838;59.938;30.642;2023-01-31T13:03:19;97997.97;;;-0.88;74.56
48926;BME280;39838;59.938;30.642;2023-01-31T13:05:54;97986.84;;;-1.04;74.52
48926;BME280;39838;59.938;30.642;2023-01-31T13:08:26;98011.56;;;-0.92;74.54
48926;BME280;39838;59.938;30.642;2023-01-31T13:10:57;98011.53;;;-0.94;74.38
48926;BME280;39838;59.938;30.642;2023-01-31T13:13:32;98020.03;;;-0.92;74.94
48926;BME280;39838;59.938;30.642;2023-01-31T13:16:10;98009.00;;;-0.89;75.28
48926;BME280;39838;59.938;30.642;2023-01-31T13:18:39;98013.28;;;-0.82;74.80
48926;BME280;39838;59.938;30.642;2023-01-31T13:21:10;98023.47;;;-0.85;74.43